Time;durP1;ratioP1;P1;durP2;ratioP2;P2;SDS_P1;SDS_P2;PMS_P1;PMS_P2;Temp;Humidity;BMP_temperature;BMP_pressure;BME280_temperature;BME280_humidity;BME280_pressure;Samples;Min_cycle;Max_cycle;Signal;HPM_P1;HPM_P2
2023/04/07 00:01:01;;;;;;;10.55;9.65;;;;;;;1.83;70.75;100222.28;10521535;28;20055;-73
2023/04/07 00:06:02;;;;;;;9.88;9.10;;;;;;;1.63;71.15;100219.53;10521849;28;20139;-73
2023/04/07 00:11:04;;;;;;;11.55;10.35;;;;;;;1.70;71.74;100220.44;10539604;28;20110;-73
2023/04/07 00:16:06;;;;;;;11.18;10.18;;;;;;;1.79;71.68;100219.66;10521670;28;20041;-74
2023/04/07 00:21:08;;;;;;;10.35;9.35;;;;;;;1.57;73.00;100216.91;10539872;28;20440;-73
2023/04/07 00:26:10;;;;;;;10.07;9.27;;;;;;;1.56;72.71;100214.31;10539368;28;20044;-72
2023/04/07 00:31:14;;;;;;;9.18;8.38;;;;;;;1.31;72.77;100208.06;10521085;28;20072;-72
2023/04/07 00:36:16;;;;;;;10.55;9.65;;;;;;;1.17;73.22;100211.38;10521344;28;20484;-72
2023/04/07 00:41:18;;;;;;;9.63;8.73;;;;;;;1.08;73.58;100215.63;10520851;28;20420;-74
2023/04/07 00:46:22;;;;;;;10.27;9.48;;;;;;;1.04;74.86;100203.50;10520644;28;20055;-74
2023/04/07 00:51:25;;;;;;;11.05;9.95;;;;;;;1.04;75.12;100200.91;10520742;28;20119;-73
2023/04/07 00:56:27;;;;;;;9.63;8.82;;;;;;;0.80;75.60;100193.75;10544247;28;20032;-72
2023/04/07 01:02:30;;;;;;;11.50;9.68;;;;;;;0.77;76.29;100194.59;10529275;28;20044;-72
2023/04/07 01:08:11;;;;;;;12.10;11.00;;;;;;;0.75;76.32;100185.94;10343495;28;20042;-72
2023/04/07 01:13:25;;;;;;;10.38;9.57;;;;;;;0.80;76.08;100184.28;10359904;28;20056;-72
2023/04/07 01:18:33;;;;;;;;;;;;;;;0.61;77.08;100177.19;10376750;28;20627;-72
2023/04/07 01:23:45;;;;;;;10.60;9.70;;;;;;;0.66;76.71;100166.03;10359547;28;19922;-72
2023/04/07 01:29:07;;;;;;;10.75;9.75;;;;;;;0.41;77.62;100170.06;10376797;28;20480;-73
2023/04/07 01:34:10;;;;;;;10.60;9.80;;;;;;;0.33;78.21;100171.69;10363394;28;20587;-73
2023/04/07 01:39:13;;;;;;;10.27;9.48;;;;;;;0.32;78.37;100163.94;10527370;28;20456;-72
2023/04/07 01:44:15;;;;;;;11.05;10.05;;;;;;;0.19;78.91;100162.91;10526365;28;20048;-73
2023/04/07 01:49:18;;;;;;;10.65;9.68;;;;;;;0.36;78.60;100158.81;10544600;28;20044;-72
2023/04/07 01:54:20;;;;;;;12.40;11.43;;;;;;;0.39;79.29;100155.38;10544382;28;20044;-73
2023/04/07 01:59:24;;;;;;;9.93;9.13;;;;;;;0.17;79.27;100160.28;10544951;28;20043;-73
2023/04/07 02:04:36;;;;;;;10.38;8.27;;;;;;;-0.01;80.27;100158.34;10526035;28;20075;-74
2023/04/07 02:09:40;;;;;;;10.00;9.18;;;;;;;-0.11;80.86;100155.63;10544892;28;20535;-72
2023/04/07 02:14:43;;;;;;;9.70;8.70;;;;;;;-0.22;80.64;100145.19;10525574;28;20506;-73
2023/04/07 02:19:49;;;;;;;8.80;7.80;;;;;;;-0.23;79.78;100147.72;10525236;28;20044;-72
2023/04/07 02:24:51;;;;;;;9.80;9.07;;;;;;;-0.01;80.15;100137.69;10525605;28;20047;-72
2023/04/07 02:30:00;;;;;;;9.00;8.30;;;;;;;-0.25;79.72;100147.72;10543121;28;20054;-73
2023/04/07 02:35:02;;;;;;;11.50;8.57;;;;;;;-0.23;81.00;100143.41;10524323;28;20048;-72
2023/04/07 02:40:07;;;;;;;10.68;9.88;;;;;;;0.01;80.97;100136.84;10507933;28;20059;-73
2023/04/07 02:45:09;;;;;;;10.10;9.10;;;;;;;0.14;79.97;100130.97;10507564;28;20085;-72
2023/04/07 02:50:11;;;;;;;8.98;8.30;;;;;;;-0.29;81.62;100136.47;10541939;28;20068;-74
2023/04/07 02:55:12;;;;;;;9.90;9.10;;;;;;;-0.22;82.22;100136.53;10523821;28;20398;-72
2023/04/07 03:00:15;;;;;;;9.43;8.63;;;;;;;-0.33;82.07;100126.94;10523585;28;20048;-72
2023/04/07 03:05:52;;;;;;;;;;;;;;;-0.16;81.30;100124.56;10527892;28;20040;-71
2023/04/07 03:10:53;;;;;;;8.60;7.88;;;;;;;-0.48;81.83;100120.69;10523241;28;19982;-74
2023/04/07 03:16:01;;;;;;;10.00;9.18;;;;;;;-0.63;83.33;100127.34;10522170;28;20040;-72
2023/04/07 03:21:08;;;;;;;9.02;8.25;;;;;;;-0.44;83.35;100122.44;10522944;28;20073;-73
2023/04/07 03:26:10;;;;;;;9.70;8.90;;;;;;;-0.40;82.92;100114.78;10541114;28;20119;-72
2023/04/07 03:31:12;;;;;;;9.43;8.73;;;;;;;-0.38;82.84;100115.66;10523151;28;20130;-74
2023/04/07 03:36:14;;;;;;;8.98;8.25;;;;;;;-0.35;82.86;100117.44;10523418;28;20032;-73
2023/04/07 03:41:17;;;;;;;9.80;9.00;;;;;;;-0.12;81.49;100113.44;10522119;28;20425;-73
2023/04/07 03:46:21;;;;;;;9.38;8.68;;;;;;;-0.26;82.02;100102.06;10522299;28;20048;-73
2023/04/07 03:51:23;;;;;;;9.30;8.50;;;;;;;-0.20;82.15;100109.00;10522207;28;20113;-72
2023/04/07 03:56:29;;;;;;;9.00;8.30;;;;;;;-0.35;82.47;100102.81;10522156;28;20036;-72
2023/04/07 04:01:32;;;;;;;9.40;8.63;;;;;;;-0.51;83.20;100108.59;10521834;28;20559;-72
2023/04/07 04:06:41;;;;;;;8.63;7.88;;;;;;;-0.72;84.22;100114.31;10521903;28;20105;-73
2023/04/07 04:12:04;;;;;;;9.30;8.57;;;;;;;-0.69;83.48;100110.91;10522188;28;20044;-74
2023/04/07 04:17:12;;;;;;;9.73;8.95;;;;;;;-0.60;84.13;100117.09;10521881;28;20054;-73
2023/04/07 04:22:18;;;;;;;7.77;7.17;;;;;;;-0.63;83.85;100111.88;10521586;28;20055;-73
2023/04/07 04:27:27;;;;;;;9.27;8.48;;;;;;;-0.27;83.20;100119.28;10522487;28;20055;-73
2023/04/07 04:32:40;;;;;;;9.18;8.38;;;;;;;-0.46;83.22;100119.00;10529899;28;20056;-73
2023/04/07 04:37:42;;;;;;;8.18;7.57;;;;;;;-0.56;84.11;100116.28;10529679;28;20139;-73
2023/04/07 04:42:45;;;;;;;8.65;7.95;;;;;;;-0.34;83.74;100114.00;10528996;28;20098;-73
2023/04/07 04:47:49;;;;;;;9.60;8.80;;;;;;;-0.57;84.27;100114.56;10547183;28;20032;-76
2023/04/07 04:52:51;;;;;;;9.02;8.23;;;;;;;-0.58;84.26;100117.97;10529406;28;20040;-75
2023/04/07 04:57:56;;;;;;;8.45;7.65;;;;;;;-0.59;84.15;100125.69;10529025;28;20513;-76
2023/04/07 05:03:08;;;;;;;8.63;7.63;;;;;;;-0.39;84.76;100123.41;10530082;28;20043;-76
2023/04/07 05:08:14;;;;;;;8.70;7.97;;;;;;;-0.21;83.56;100123.66;10529341;28;20055;-76
2023/04/07 05:13:16;;;;;;;8.77;8.00;;;;;;;-0.27;83.35;100120.97;10529542;28;20105;-76
2023/04/07 05:18:19;;;;;;;8.35;7.65;;;;;;;-0.29;83.86;100122.69;10529671;28;20138;-76
2023/04/07 05:23:21;;;;;;;7.80;7.10;;;;;;;-0.05;82.02;100117.81;10529027;28;20070;-76
2023/04/07 05:28:25;;;;;;;7.80;7.15;;;;;;;0.01;82.37;100126.50;10515265;28;20052;-76
2023/04/07 05:33:30;;;;;;;8.90;8.00;;;;;;;0.37;79.92;100118.31;10530199;28;20048;-76
2023/04/07 05:38:32;;;;;;;7.50;6.97;;;;;;;0.17;80.13;100112.91;10530061;28;20066;-77
2023/04/07 05:43:42;;;;;;;7.90;7.22;;;;;;;0.14;81.55;100108.59;10528846;28;20068;-76
2023/04/07 05:48:44;;;;;;;8.05;7.35;;;;;;;0.31;81.68;100107.88;10528531;28;20058;-76
2023/04/07 05:53:47;;;;;;;7.22;6.63;;;;;;;0.72;79.10;100114.34;10529257;28;20046;-77
2023/04/07 05:58:52;;;;;;;8.27;7.57;;;;;;;0.75;77.93;100114.41;10528805;28;20512;-76
2023/04/07 06:03:54;;;;;;;7.95;7.32;;;;;;;1.25;79.02;100105.28;10527968;28;20117;-76
2023/04/07 06:09:00;;;;;;;7.28;6.68;;;;;;;2.36;73.66;100104.09;10528074;28;20048;-76
2023/04/07 06:14:02;;;;;;;6.72;6.13;;;;;;;3.20;68.68;100111.97;10527054;28;20063;-76
2023/04/07 06:19:06;;;;;;;5.60;5.10;;;;;;;3.70;66.68;100108.41;10509876;28;20044;-75
2023/04/07 06:24:07;;;;;;;6.22;5.63;;;;;;;4.57;59.89;100112.38;10526727;28;20048;-77
2023/04/07 06:29:09;;;;;;;5.88;5.38;;;;;;;4.62;59.45;100111.47;10547835;28;20060;-77
2023/04/07 06:34:11;;;;;;;8.82;8.02;;;;;;;4.70;58.27;100099.28;10529994;28;20044;-78
2023/04/07 06:39:13;;;;;;;5.82;5.32;;;;;;;5.16;56.04;100100.66;10549960;28;20040;-77
2023/04/07 06:44:15;;;;;;;6.70;6.03;;;;;;;4.46;59.93;100105.47;10551317;28;20093;-77
2023/04/07 06:49:21;;;;;;;6.07;5.57;;;;;;;4.26;57.63;100107.34;10530074;28;20044;-77
2023/04/07 06:54:22;;;;;;;8.27;6.40;;;;;;;4.22;58.04;100100.41;10551170;28;20051;-78
2023/04/07 06:59:24;;;;;;;11.57;8.40;;;;;;;4.22;59.25;100093.47;10556575;28;20079;-77
2023/04/07 07:04:26;;;;;;;7.38;6.68;;;;;;;4.34;59.55;100100.38;10529790;28;20064;-77
2023/04/07 07:09:29;;;;;;;9.02;7.18;;;;;;;4.65;57.85;100095.84;10547660;28;20386;-76
2023/04/07 07:14:30;;;;;;;7.03;6.32;;;;;;;4.38;58.90;100090.78;10552120;28;20075;-78
2023/04/07 07:19:32;;;;;;;7.43;6.72;;;;;;;4.64;58.24;100098.44;10554475;28;20036;-78
2023/04/07 07:24:34;;;;;;;8.43;6.88;;;;;;;4.71;56.85;100102.72;10549947;28;20131;-77
2023/04/07 07:29:36;;;;;;;6.13;5.57;;;;;;;5.12;57.13;100107.63;10548707;28;20054;-78
2023/04/07 07:34:38;;;;;;;7.25;5.90;;;;;;;5.39;56.34;100101.28;10556218;28;20102;-78
2023/04/07 07:39:40;;;;;;;7.03;6.05;;;;;;;6.21;54.66;100116.94;10537917;28;20036;-79
2023/04/07 07:44:41;;;;;;;8.15;6.18;;;;;;;6.69;52.80;100117.16;10530142;28;20516;-78
2023/04/07 07:49:43;;;;;;;5.75;5.25;;;;;;;6.87;51.38;100122.13;10527817;28;20066;-79
2023/04/07 07:54:46;;;;;;;6.68;6.05;;;;;;;7.08;51.05;100129.63;10553384;28;20102;-78
2023/04/07 07:59:48;;;;;;;8.45;7.75;;;;;;;7.30;50.25;100124.03;10554354;28;20039;-78
2023/04/07 08:04:50;;;;;;;8.10;6.38;;;;;;;7.37;49.58;100128.25;10518774;28;20528;-77
2023/04/07 08:09:52;;;;;;;8.43;7.63;;;;;;;7.63;45.80;100133.03;10528006;28;20064;-78
2023/04/07 08:14:54;;;;;;;7.18;6.57;;;;;;;7.65;47.23;100135.63;10546699;28;20048;-77
2023/04/07 08:19:56;;;;;;;7.80;7.07;;;;;;;7.65;45.25;100133.00;10546112;28;20036;-77
2023/04/07 08:24:58;;;;;;;8.98;7.40;;;;;;;7.85;45.90;100133.50;10493309;28;20036;-78
2023/04/07 08:30:02;;;;;;;7.95;7.18;;;;;;;8.44;43.86;100134.06;10505566;28;20044;-76
2023/04/07 08:35:04;;;;;;;7.85;7.10;;;;;;;8.43;44.20;100140.22;10500121;28;20049;-76
2023/04/07 08:40:06;;;;;;;8.02;6.72;;;;;;;8.56;43.50;100140.81;10508787;28;20040;-77
2023/04/07 08:45:11;;;;;;;8.52;7.68;;;;;;;8.45;44.67;100134.94;10544156;28;20059;-77
2023/04/07 08:50:16;;;;;;;8.23;7.53;;;;;;;8.34;44.10;100119.44;10544953;28;20055;-76
2023/04/07 08:55:18;;;;;;;8.60;7.80;;;;;;;8.52;44.37;100132.16;10544007;28;20114;-76
2023/04/07 09:00:20;;;;;;;7.93;7.20;;;;;;;8.79;43.42;100129.81;10544319;28;20484;-77
2023/04/07 09:05:23;;;;;;;8.55;7.75;;;;;;;9.00;43.72;100134.56;10526894;28;20047;-77
2023/04/07 09:10:26;;;;;;;7.97;7.20;;;;;;;9.25;43.42;100123.47;10525512;28;20063;-77
2023/04/07 09:15:30;;;;;;;9.35;7.68;;;;;;;9.60;42.48;100109.44;10546305;28;20051;-77
2023/04/07 09:20:55;;;;;;;7.32;6.72;;;;;;;9.43;42.20;100122.13;10550419;28;20048;-77
2023/04/07 09:26:17;;;;;;;6.78;6.15;;;;;;;10.01;38.46;100112.72;10532507;28;20055;-77
2023/04/07 09:31:20;;;;;;;7.50;6.80;;;;;;;10.07;38.98;100112.53;10550360;28;20081;-77
2023/04/07 09:36:23;;;;;;;7.97;7.18;;;;;;;10.09;39.75;100106.34;10531545;28;20050;-77
2023/04/07 09:41:26;;;;;;;7.25;5.65;;;;;;;9.86;37.81;100106.09;10552414;28;20063;-76
2023/04/07 09:46:28;;;;;;;6.32;5.18;;;;;;;9.84;37.44;100110.56;10530038;28;20044;-77
2023/04/07 09:51:32;;;;;;;5.57;5.07;;;;;;;9.49;38.61;100098.38;10548000;28;20595;-77
2023/04/07 09:56:35;;;;;;;5.70;5.20;;;;;;;9.79;39.50;100101.94;10531343;28;20040;-77
2023/04/07 10:01:38;;;;;;;6.22;4.95;;;;;;;9.54;37.55;100107.00;10548249;28;20040;-77
2023/04/07 10:06:41;;;;;;;8.50;4.88;;;;;;;9.67;38.01;100104.91;10548969;28;20040;-76
2023/04/07 10:11:44;;;;;;;5.68;5.13;;;;;;;9.62;37.93;100102.41;10530112;28;20044;-77
2023/04/07 10:16:47;;;;;;;5.13;4.57;;;;;;;9.52;36.78;100101.78;10530257;28;20107;-77
2023/04/07 10:21:54;;;;;;;5.10;4.60;;;;;;;9.49;38.22;100101.00;10527448;28;20044;-76
2023/04/07 10:27:02;;;;;;;5.32;4.68;;;;;;;9.74;37.70;100104.69;10545478;28;20078;-76
2023/04/07 10:32:04;;;;;;;7.22;5.05;;;;;;;9.76;37.78;100099.41;10545915;28;20044;-77
2023/04/07 10:37:13;;;;;;;8.68;4.07;;;;;;;10.01;36.70;100103.06;10527627;28;20218;-76
2023/04/07 10:42:36;;;;;;;4.22;3.92;;;;;;;10.31;36.73;100097.84;10527594;28;20040;-75
2023/04/07 10:47:56;;;;;;;6.25;4.90;;;;;;;10.21;37.68;100099.00;10537833;23;20089;-72
2023/04/07 10:53:07;;;;;;;5.80;4.68;;;;;;;10.41;36.49;100099.31;10528147;28;20040;-73
2023/04/07 10:58:27;;;;;;;4.40;4.00;;;;;;;10.52;35.61;100101.59;10526195;28;20451;-71
2023/04/07 11:03:37;;;;;;;5.05;3.95;;;;;;;10.37;36.17;100105.56;10543425;28;20050;-71
2023/04/07 11:08:42;;;;;;;4.95;4.45;;;;;;;10.51;37.81;100103.38;10522634;28;20052;-71
2023/04/07 11:13:48;;;;;;;4.80;4.30;;;;;;;10.09;37.14;100095.84;10527072;28;20068;-72
2023/04/07 11:18:56;;;;;;;7.05;4.32;;;;;;;10.46;37.35;100093.91;10528955;28;20032;-72
2023/04/07 11:23:58;;;;;;;4.53;3.90;;;;;;;10.78;36.48;100098.19;10525072;28;20051;-72
2023/04/07 11:29:00;;;;;;;5.35;4.60;;;;;;;11.09;36.81;100092.78;10542490;28;20040;-72
2023/04/07 11:34:04;;;;;;;5.72;4.95;;;;;;;11.45;37.73;100093.31;10542397;28;20118;-73
2023/04/07 11:39:19;;;;;;;5.78;5.22;;;;;;;11.22;35.15;100087.97;10542733;28;20467;-72
2023/04/07 11:44:21;;;;;;;5.25;4.75;;;;;;;10.93;37.20;100094.19;10542409;28;20079;-71
2023/04/07 11:49:26;;;;;;;6.28;4.70;;;;;;;11.35;35.97;100086.66;10542810;28;20047;-71
2023/04/07 11:54:48;;;;;;;6.15;4.57;;;;;;;11.37;35.93;100092.72;10543512;28;20044;-72
2023/04/07 11:59:50;;;;;;;8.45;4.95;;;;;;;11.49;35.53;100080.91;10527033;28;20479;-71
2023/04/07 12:04:56;;;;;;;5.30;4.80;;;;;;;11.57;35.41;100085.00;10543158;28;20048;-72
2023/04/07 12:10:17;;;;;;;7.28;5.95;;;;;;;11.59;36.58;100084.94;10541887;28;20131;-71
2023/04/07 12:15:20;;;;;;;5.88;5.03;;;;;;;11.71;35.38;100073.97;10522815;28;20482;-71
2023/04/07 12:20:22;;;;;;;6.18;5.57;;;;;;;11.35;37.01;100079.63;10541662;28;20040;-72
2023/04/07 12:25:24;;;;;;;6.28;5.65;;;;;;;11.49;35.24;100071.25;10542608;28;20127;-72
2023/04/07 12:30:26;;;;;;;6.25;5.18;;;;;;;11.71;36.41;100075.75;10541339;28;20119;-73
2023/04/07 12:35:29;;;;;;;5.97;5.38;;;;;;;11.57;35.50;100071.84;10542392;28;20043;-72
2023/04/07 12:40:31;;;;;;;5.75;5.25;;;;;;;11.55;35.88;100078.94;10523778;28;20093;-72
2023/04/07 12:45:33;;;;;;;5.93;5.20;;;;;;;11.53;35.92;100070.22;10544643;28;20048;-72
2023/04/07 12:50:36;;;;;;;5.65;5.13;;;;;;;11.46;37.58;100068.72;10544996;28;20123;-72
2023/04/07 12:55:38;;;;;;;6.13;5.40;;;;;;;11.39;37.37;100071.63;10549361;28;20040;-72
2023/04/07 13:00:40;;;;;;;7.20;6.22;;;;;;;11.58;38.15;100060.38;10530832;28;20063;-72
2023/04/07 13:05:42;;;;;;;7.38;6.45;;;;;;;11.71;37.67;100073.97;10533991;28;20382;-72
2023/04/07 13:10:44;;;;;;;7.78;7.18;;;;;;;11.49;38.77;100068.59;10548922;28;20043;-71
2023/04/07 13:15:45;;;;;;;6.70;6.10;;;;;;;11.52;38.57;100079.03;10547745;28;20084;-72
2023/04/07 13:20:47;;;;;;;6.38;5.88;;;;;;;11.62;38.12;100055.88;10529345;28;20047;-72
2023/04/07 13:26:09;;;;;;;10.38;9.18;;;;;;;11.37;39.38;100064.63;10549288;28;20099;-73
2023/04/07 13:31:14;;;;;;;6.95;6.35;;;;;;;11.08;39.53;100065.63;10547324;28;20044;-72
2023/04/07 13:36:17;;;;;;;7.25;6.65;;;;;;;11.07;39.43;100069.16;10516283;28;20058;-72
2023/04/07 13:41:23;;;;;;;6.90;6.30;;;;;;;11.06;39.48;100069.19;10526229;28;20394;-72
2023/04/07 13:46:25;;;;;;;6.85;5.90;;;;;;;11.24;39.27;100062.47;10529431;28;20093;-72
2023/04/07 13:51:29;;;;;;;9.13;6.38;;;;;;;11.36;38.37;100056.78;10500031;28;20047;-71
2023/04/07 13:56:31;;;;;;;6.72;6.18;;;;;;;11.01;38.48;100058.84;10486444;28;20044;-72
2023/04/07 14:01:34;;;;;;;6.97;6.30;;;;;;;11.21;38.97;100050.28;10485461;28;20127;-72
2023/04/07 14:06:36;;;;;;;7.32;5.80;;;;;;;11.04;40.73;100055.25;10500163;28;20052;-73
2023/04/07 14:11:38;;;;;;;7.10;6.45;;;;;;;10.88;39.20;100052.25;10528441;28;20585;-72
2023/04/07 14:16:40;;;;;;;6.88;6.28;;;;;;;10.96;38.83;100054.66;10545428;28;20044;-72
2023/04/07 14:21:42;;;;;;;7.80;7.00;;;;;;;10.77;39.90;100046.50;10526962;28;20398;-71
2023/04/07 14:26:45;;;;;;;7.82;7.03;;;;;;;10.81;40.79;100049.00;10527088;28;20437;-71
2023/04/07 14:31:47;;;;;;;6.90;6.30;;;;;;;10.92;39.42;100046.00;10545543;28;20505;-72
2023/04/07 14:36:57;;;;;;;7.85;7.03;;;;;;;10.80;40.56;100049.00;10546624;28;20064;-72
2023/04/07 14:41:59;;;;;;;9.23;6.57;;;;;;;10.81;40.92;100050.75;10545298;28;20036;-72
2023/04/07 14:47:01;;;;;;;7.88;7.07;;;;;;;10.95;40.45;100055.56;10544107;28;20047;-72
2023/04/07 14:52:03;;;;;;;7.78;6.97;;;;;;;10.71;40.74;100047.53;10538510;28;20058;-72
2023/04/07 14:57:05;;;;;;;7.57;6.88;;;;;;;10.61;41.36;100054.00;10547018;28;20064;-70
2023/04/07 15:02:07;;;;;;;7.35;6.65;;;;;;;10.51;40.83;100052.59;10544949;28;20493;-70
2023/04/07 15:07:09;;;;;;;7.40;6.63;;;;;;;10.15;41.95;100047.50;10535375;28;20046;-72
2023/04/07 15:12:10;;;;;;;7.00;6.30;;;;;;;9.91;42.45;100053.47;10541475;28;20050;-73
2023/04/07 15:17:12;;;;;;;7.75;7.05;;;;;;;10.03;42.45;100048.72;10527142;28;20046;-72
2023/04/07 15:22:14;;;;;;;7.38;6.60;;;;;;;10.02;42.76;100049.63;10543933;28;20044;-72
2023/04/07 15:27:16;;;;;;;8.57;7.78;;;;;;;10.03;42.41;100053.13;10523810;28;20044;-72
2023/04/07 15:32:18;;;;;;;7.78;7.03;;;;;;;9.59;42.95;100053.47;10524159;28;20071;-72
2023/04/07 15:37:20;;;;;;;8.68;7.05;;;;;;;9.57;42.70;100052.66;10532172;28;20405;-73
2023/04/07 15:42:22;;;;;;;7.32;6.72;;;;;;;9.36;43.26;100058.47;10544753;28;20450;-73
2023/04/07 15:47:24;;;;;;;8.75;8.05;;;;;;;9.53;43.57;100064.16;10547549;28;20085;-72
2023/04/07 15:52:26;;;;;;;8.85;7.63;;;;;;;9.40;43.75;100056.66;10547922;28;20040;-72
2023/04/07 15:57:29;;;;;;;11.68;8.77;;;;;;;9.25;44.23;100069.28;10527813;28;20089;-72
2023/04/07 16:02:30;;;;;;;8.48;7.65;;;;;;;9.11;44.36;100071.34;10533878;28;20048;-73
2023/04/07 16:07:32;;;;;;;9.75;8.10;;;;;;;8.94;45.60;100073.53;10542027;28;20051;-73
2023/04/07 16:12:35;;;;;;;12.35;10.15;;;;;;;8.67;46.72;100077.69;10506569;28;20109;-73
2023/04/07 16:17:40;;;;;;;8.73;7.93;;;;;;;8.66;47.16;100078.59;10541585;28;20044;-72
2023/04/07 16:22:47;;;;;;;9.55;8.57;;;;;;;8.42;48.25;100086.09;10526122;28;20510;-71
2023/04/07 16:27:52;;;;;;;11.73;9.43;;;;;;;8.46;48.83;100087.78;10536901;28;20105;-72
2023/04/07 16:32:54;;;;;;;12.85;11.35;;;;;;;8.31;50.09;100098.53;10549602;28;20076;-72
2023/04/07 16:38:00;;;;;;;11.52;10.52;;;;;;;8.12;50.40;100099.81;10550284;28;20036;-72
2023/04/07 16:43:02;;;;;;;9.20;8.30;;;;;;;7.94;50.65;100106.28;10532661;28;20387;-72
2023/04/07 16:48:04;;;;;;;9.48;8.57;;;;;;;7.92;50.47;100114.16;10480107;22;20108;-76
2023/04/07 16:53:06;;;;;;;10.32;9.43;;;;;;;7.61;51.35;100126.09;10469378;28;20072;-77
2023/04/07 16:58:10;;;;;;;9.90;9.10;;;;;;;7.61;52.20;100131.34;10506838;28;20044;-77
2023/04/07 17:03:13;;;;;;;10.18;9.18;;;;;;;7.64;51.39;100136.53;10488923;28;20036;-75
2023/04/07 17:08:16;;;;;;;10.07;9.18;;;;;;;7.66;51.87;100135.63;10507145;28;20159;-75
2023/04/07 17:13:21;;;;;;;7.90;7.25;;;;;;;7.48;51.53;100146.38;10490885;28;20043;-75
2023/04/07 17:18:24;;;;;;;7.97;7.07;;;;;;;7.27;51.46;100158.09;10489240;28;20439;-73
2023/04/07 17:23:27;;;;;;;6.57;5.97;;;;;;;7.30;52.10;100151.06;10490754;28;20036;-74
2023/04/07 17:28:29;;;;;;;9.07;8.18;;;;;;;7.17;52.68;100156.47;10489273;28;20091;-76
2023/04/07 17:33:32;;;;;;;8.40;7.35;;;;;;;7.02;53.41;100174.13;10491137;28;20073;-75
2023/04/07 17:38:34;;;;;;;9.25;8.48;;;;;;;7.03;54.37;100170.63;10490434;28;20032;-76
2023/04/07 17:43:38;;;;;;;8.07;7.28;;;;;;;7.03;54.91;100177.59;10490130;28;20050;-76
2023/04/07 17:48:43;;;;;;;9.18;8.27;;;;;;;6.79;56.35;100189.28;10474597;28;20128;-76
2023/04/07 17:53:45;;;;;;;8.18;7.38;;;;;;;6.79;57.21;100191.91;10489568;28;20045;-76
2023/04/07 17:58:47;;;;;;;10.27;9.35;;;;;;;6.66;58.38;100198.19;10489494;28;20041;-75
2023/04/07 18:03:50;;;;;;;11.57;7.97;;;;;;;6.67;59.94;100206.00;10507328;28;20070;-75
2023/04/07 18:08:52;;;;;;;9.50;7.75;;;;;;;6.75;59.40;100208.50;10489531;28;20049;-74
2023/04/07 18:13:55;;;;;;;9.27;8.38;;;;;;;6.64;60.73;100211.28;10506035;28;20068;-76
2023/04/07 18:18:57;;;;;;;8.98;7.78;;;;;;;6.50;61.27;100213.16;10507499;28;20044;-76
2023/04/07 18:23:59;;;;;;;9.50;8.60;;;;;;;6.48;62.53;100225.41;10488940;28;20048;-75
2023/04/07 18:29:01;;;;;;;9.07;8.25;;;;;;;6.36;64.19;100233.38;10490261;28;20044;-76
2023/04/07 18:34:03;;;;;;;7.95;7.25;;;;;;;6.26;65.07;100232.59;10487188;28;20046;-75
2023/04/07 18:39:05;;;;;;;10.63;9.60;;;;;;;6.15;67.43;100234.44;10503506;28;20044;-77
2023/04/07 18:44:06;;;;;;;10.50;9.50;;;;;;;5.90;70.33;100237.28;10487975;28;20050;-76
2023/04/07 18:49:09;;;;;;;11.52;10.43;;;;;;;6.03;71.16;100249.38;10486502;28;20424;-76
2023/04/07 18:54:11;;;;;;;11.02;9.75;;;;;;;5.73;73.83;100257.44;10486669;28;20522;-76
2023/04/07 18:59:13;;;;;;;11.80;10.80;;;;;;;5.76;74.59;100257.44;10504599;28;20060;-76
2023/04/07 19:04:15;;;;;;;12.40;11.30;;;;;;;5.78;76.22;100256.53;10503992;28;20363;-75
2023/04/07 19:09:17;;;;;;;13.63;12.30;;;;;;;5.61;79.27;100261.00;10503697;28;20478;-76
2023/04/07 19:14:18;;;;;;;13.30;12.20;;;;;;;5.63;80.38;100272.31;10503822;28;20076;-75
2023/04/07 19:19:20;;;;;;;13.73;12.38;;;;;;;5.55;83.47;100274.09;10502843;28;20041;-77
2023/04/07 19:24:22;;;;;;;15.43;13.90;;;;;;;5.31;86.17;100278.63;10503424;28;20072;-76
2023/04/07 19:29:24;;;;;;;15.68;14.15;;;;;;;5.34;87.73;100280.31;10501951;28;20049;-77
2023/04/07 19:34:26;;;;;;;15.45;14.02;;;;;;;5.15;89.00;100281.31;10502184;28;20041;-76
2023/04/07 19:39:28;;;;;;;17.83;15.35;;;;;;;5.05;90.56;100284.00;10484613;28;20350;-76
2023/04/07 19:44:30;;;;;;;15.85;14.65;;;;;;;5.23;90.58;100279.56;10502212;28;20040;-77
2023/04/07 19:49:31;;;;;;;16.83;15.50;;;;;;;5.09;92.71;100276.13;10469198;28;20408;-77
2023/04/07 19:54:33;;;;;;;16.70;15.20;;;;;;;5.07;93.69;100279.63;10502145;28;20040;-77
2023/04/07 19:59:35;;;;;;;17.63;15.93;;;;;;;5.02;93.67;100283.13;10484414;28;20045;-76
2023/04/07 20:04:37;;;;;;;17.95;16.52;;;;;;;4.90;96.04;100293.59;10502362;28;20048;-77
2023/04/07 20:09:38;;;;;;;16.17;14.75;;;;;;;4.84;96.12;100289.28;10486160;28;20126;-76
2023/04/07 20:14:40;;;;;;;14.50;13.30;;;;;;;4.92;96.25;100289.28;10486814;28;20501;-77
2023/04/07 20:19:42;;;;;;;14.48;13.07;;;;;;;4.84;95.50;100296.25;10485808;28;20040;-76
2023/04/07 20:24:44;;;;;;;11.43;10.52;;;;;;;4.76;95.58;100283.25;10501487;28;20040;-77
2023/04/07 20:29:45;;;;;;;10.90;9.73;;;;;;;4.70;95.48;100298.91;10501924;28;20127;-76
2023/04/07 20:34:50;;;;;;;10.70;9.75;;;;;;;4.52;96.38;100297.25;10484841;28;20033;-77
2023/04/07 20:39:54;;;;;;;9.18;8.38;;;;;;;4.79;93.50;100288.47;10482824;28;20046;-77
2023/04/07 20:45:01;;;;;;;9.48;8.68;;;;;;;4.80;91.46;100285.84;10482378;28;20417;-77
2023/04/07 20:50:03;;;;;;;10.95;10.05;;;;;;;4.80;93.79;100296.25;10481186;28;20135;-76
2023/04/07 20:55:09;;;;;;;12.77;11.73;;;;;;;4.60;97.11;100284.16;10482084;28;20444;-76
2023/04/07 21:00:11;;;;;;;12.27;11.03;;;;;;;4.37;99.56;100295.53;10464051;28;20118;-75
2023/04/07 21:05:13;;;;;;;10.40;9.57;;;;;;;4.37;99.29;100287.72;10479772;28;20072;-76
2023/04/07 21:10:15;;;;;;;12.15;10.52;;;;;;;4.44;99.93;100285.97;10500104;28;20041;-76
2023/04/07 21:15:17;;;;;;;10.73;9.82;;;;;;;4.40;99.46;100281.66;10506569;28;20062;-76
2023/04/07 21:20:19;;;;;;;10.13;9.13;;;;;;;4.34;99.78;100281.63;10488069;28;20485;-74
2023/04/07 21:25:21;;;;;;;10.60;9.80;;;;;;;4.22;100.00;100286.03;10504844;28;20045;-75
2023/04/07 21:30:23;;;;;;;10.55;9.63;;;;;;;4.34;100.00;100289.44;10488043;28;20072;-73
2023/04/07 21:35:27;;;;;;;10.23;9.38;;;;;;;4.23;100.00;100281.69;10486842;28;20559;-72
2023/04/07 21:40:29;;;;;;;11.10;10.10;;;;;;;4.12;100.00;100281.72;10487008;28;20044;-73
2023/04/07 21:45:30;;;;;;;11.68;10.73;;;;;;;4.08;100.00;100284.31;10486307;28;20440;-73
2023/04/07 21:50:32;;;;;;;12.43;11.25;;;;;;;4.09;100.00;100278.25;10504258;28;20098;-73
2023/04/07 21:55:34;;;;;;;11.40;10.45;;;;;;;4.16;100.00;100275.63;10486004;28;20052;-73
2023/04/07 22:00:37;;;;;;;11.70;10.70;;;;;;;4.15;100.00;100283.41;10504847;28;20107;-73
2023/04/07 22:05:41;;;;;;;12.63;11.65;;;;;;;4.01;100.00;100289.50;10486359;28;20060;-73
2023/04/07 22:10:43;;;;;;;13.88;12.75;;;;;;;3.88;100.00;100287.78;10503631;28;20037;-73
2023/04/07 22:15:44;;;;;;;13.93;12.85;;;;;;;3.86;100.00;100286.94;10503810;28;20052;-74
2023/04/07 22:20:46;;;;;;;14.70;13.38;;;;;;;4.01;100.00;100284.31;10468066;28;20078;-73
2023/04/07 22:25:48;;;;;;;13.30;12.18;;;;;;;3.94;100.00;100279.09;10484505;28;20555;-74
2023/04/07 22:30:50;;;;;;;13.30;12.20;;;;;;;3.89;100.00;100280.84;10502299;28;20090;-74
2023/04/07 22:35:51;;;;;;;12.73;11.80;;;;;;;3.98;100.00;100276.50;10483731;28;20083;-74
2023/04/07 22:40:53;;;;;;;14.10;13.00;;;;;;;4.03;100.00;100284.31;10501282;28;20115;-74
2023/04/07 22:45:55;;;;;;;16.15;14.95;;;;;;;3.96;100.00;100287.78;10501600;28;20044;-71
2023/04/07 22:50:56;;;;;;;16.77;15.48;;;;;;;3.98;100.00;100288.63;10484615;28;20040;-70
2023/04/07 22:55:58;;;;;;;16.42;15.05;;;;;;;4.13;100.00;100290.38;10484052;28;20052;-70
2023/04/07 23:01:00;;;;;;;16.00;14.85;;;;;;;3.99;100.00;100286.06;10501587;28;20078;-71
2023/04/07 23:06:02;;;;;;;17.02;15.43;;;;;;;3.99;100.00;100303.41;10500208;28;20410;-71
2023/04/07 23:11:07;;;;;;;18.33;16.85;;;;;;;4.01;100.00;100294.72;10482389;28;20525;-71
2023/04/07 23:16:13;;;;;;;18.95;17.33;;;;;;;4.12;100.00;100296.44;10483142;28;20070;-71